createdAt,value
2023-11-13T00:01:29.003Z,86.16
2023-11-13T00:04:08.498Z,86.32
2023-11-13T00:06:47.893Z,85.61
2023-11-13T00:09:27.234Z,85.97
2023-11-13T00:12:12.865Z,86.08
2023-11-13T00:14:52.271Z,86.14
2023-11-13T00:17:31.879Z,86.18
2023-11-13T00:20:11.934Z,85.79
2023-11-13T00:22:51.287Z,85.56
2023-11-13T00:25:30.599Z,85.77
2023-11-13T00:28:15.057Z,86.03
2023-11-13T00:30:54.637Z,86.16
2023-11-13T00:33:34.173Z,86.73
2023-11-13T00:36:14.367Z,86.17
2023-11-13T00:38:53.707Z,86.01
2023-11-13T00:41:34.828Z,86.06
2023-11-13T00:44:19.580Z,84.57
2023-11-13T00:46:59.199Z,85.07
2023-11-13T00:49:38.693Z,85.36
2023-11-13T00:52:18.075Z,85.55
2023-11-13T00:54:58.915Z,85.71
2023-11-13T00:57:38.315Z,84.35
2023-11-13T01:00:23.733Z,84.77
2023-11-13T01:03:03.490Z,85.03
2023-11-13T01:05:43.308Z,85.85
2023-11-13T01:08:22.633Z,84.28
2023-11-13T01:11:02.030Z,83.81
2023-11-13T01:13:41.413Z,84.02
2023-11-13T01:16:26.970Z,84.37
2023-11-13T01:19:06.421Z,85.35
2023-11-13T01:21:45.967Z,86.03
2023-11-13T01:24:25.362Z,85.72
2023-11-13T01:27:04.682Z,85.04
2023-11-13T01:29:44.100Z,85.38
2023-11-13T01:32:28.520Z,84.38
2023-11-13T01:35:07.830Z,84.92
2023-11-13T01:37:47.213Z,84.87
2023-11-13T01:40:26.664Z,84.67
2023-11-13T01:43:05.972Z,84.61
2023-11-13T01:45:45.472Z,85.35
2023-11-13T01:48:31.763Z,85.84
2023-11-13T01:51:11.472Z,85.71
2023-11-13T01:53:51.096Z,86.12
2023-11-13T01:56:33.347Z,86.02
2023-11-13T01:59:14.968Z,86.64
2023-11-13T02:01:54.572Z,86.48
2023-11-13T02:04:39.285Z,86.52
2023-11-13T02:07:18.969Z,86.83
2023-11-13T02:09:58.661Z,86.96
2023-11-13T02:12:39.418Z,86.41
2023-11-13T02:15:19.159Z,86.52
2023-11-13T02:18:08.798Z,86.71
2023-11-13T02:20:53.332Z,86.73
2023-11-13T02:23:37.668Z,86.70
2023-11-13T02:26:22.163Z,86.83
2023-11-13T02:29:01.458Z,86.57
2023-11-13T02:31:41.422Z,87.07
2023-11-13T02:34:20.811Z,86.96
2023-11-13T02:37:00.892Z,87.13
2023-11-13T02:39:45.258Z,87.35
2023-11-13T02:42:25.259Z,86.97
2023-11-13T02:45:04.546Z,87.29
2023-11-13T02:47:44.374Z,87.75
2023-11-13T02:50:23.915Z,87.40
2023-11-13T02:53:03.181Z,87.73
2023-11-13T02:55:47.909Z,87.94
2023-11-13T02:58:27.628Z,87.85
2023-11-13T03:01:07.040Z,87.85
2023-11-13T03:03:46.537Z,87.96
2023-11-13T03:06:29.208Z,87.69
2023-11-13T03:09:08.544Z,87.38
2023-11-13T03:11:53.045Z,87.41
2023-11-13T03:14:32.476Z,87.86
2023-11-13T03:17:12.220Z,88.74
2023-11-13T03:19:51.634Z,88.36
2023-11-13T03:22:31.073Z,88.46
2023-11-13T03:25:10.918Z,88.21
2023-11-13T03:27:55.368Z,88.13
2023-11-13T03:30:35.386Z,88.36
2023-11-13T03:33:14.791Z,87.89
2023-11-13T03:35:54.249Z,88.13
2023-11-13T03:38:33.545Z,88.69
2023-11-13T03:41:13.209Z,88.69
2023-11-13T03:43:57.959Z,88.61
2023-11-13T03:46:37.887Z,88.78
2023-11-13T03:49:17.358Z,88.70
2023-11-13T03:51:56.848Z,89.10
2023-11-13T03:54:36.228Z,88.73
2023-11-13T03:57:15.873Z,88.61
2023-11-13T04:00:00.324Z,88.73
2023-11-13T04:02:39.594Z,88.65
2023-11-13T04:05:18.893Z,88.46
2023-11-13T04:07:58.184Z,88.48
2023-11-13T04:10:37.563Z,88.36
2023-11-13T04:13:17.046Z,88.31
2023-11-13T04:16:03.014Z,88.20
2023-11-13T04:18:42.358Z,88.08
2023-11-13T04:21:22.131Z,88.24
2023-11-13T04:24:01.410Z,88.37
2023-11-13T04:26:40.732Z,87.92
2023-11-13T04:29:20.030Z,88.32
2023-11-13T04:32:04.411Z,88.47
2023-11-13T04:34:43.843Z,88.98
2023-11-13T04:37:23.720Z,89.05
2023-11-13T04:40:03.092Z,88.82
2023-11-13T04:42:42.414Z,88.61
2023-11-13T04:45:21.866Z,88.06
2023-11-13T04:48:07.399Z,88.26
2023-11-13T04:50:46.782Z,88.45
2023-11-13T04:53:26.061Z,88.71
2023-11-13T04:56:05.431Z,88.38
2023-11-13T04:58:45.718Z,88.83
2023-11-13T05:01:25.421Z,88.94
2023-11-13T05:04:10.090Z,89.04
2023-11-13T05:06:50.347Z,88.73
2023-11-13T05:09:30.446Z,89.04
2023-11-13T05:12:10.473Z,89.14
2023-11-13T05:14:50.644Z,89.16
2023-11-13T05:17:29.999Z,89.27
2023-11-13T05:20:15.792Z,89.06
2023-11-13T05:22:56.524Z,88.94
2023-11-13T05:25:35.822Z,89.31
2023-11-13T05:28:15.247Z,89.36
2023-11-13T05:30:54.575Z,89.50
2023-11-13T05:33:34.158Z,89.44
2023-11-13T05:36:18.893Z,89.29
2023-11-13T05:38:58.360Z,89.27
2023-11-13T05:41:37.619Z,89.11
2023-11-13T05:44:16.953Z,89.12
2023-11-13T05:46:56.363Z,89.10
2023-11-13T05:49:35.831Z,89.13
2023-11-13T05:52:20.247Z,89.77
2023-11-13T05:54:59.624Z,89.84
2023-11-13T05:57:39.041Z,89.74
2023-11-13T06:00:21.158Z,89.72
2023-11-13T06:03:00.504Z,89.74
2023-11-13T06:05:39.827Z,89.60
2023-11-13T06:08:24.217Z,89.85
2023-11-13T06:11:03.663Z,89.72
2023-11-13T06:13:43.298Z,89.82
2023-11-13T06:16:22.781Z,89.19
2023-11-13T06:19:02.132Z,89.44
2023-11-13T06:21:42.053Z,89.26
2023-11-13T06:24:26.588Z,89.12
2023-11-13T06:27:06.069Z,88.83
2023-11-13T06:29:45.372Z,89.23
2023-11-13T06:32:24.911Z,88.77
2023-11-13T06:35:04.677Z,89.17
2023-11-13T06:37:43.991Z,89.26
2023-11-13T06:40:28.492Z,88.89
2023-11-13T06:43:07.898Z,89.37
2023-11-13T06:45:47.265Z,88.92
2023-11-13T06:48:26.583Z,88.58
2023-11-13T06:51:08.940Z,88.44
2023-11-13T06:53:49.952Z,88.49
2023-11-13T06:56:34.500Z,88.40
2023-11-13T06:59:14.145Z,88.77
2023-11-13T07:01:53.837Z,88.82
2023-11-13T07:04:33.232Z,89.43
2023-11-13T07:07:12.599Z,89.33
2023-11-13T07:09:52.010Z,89.26
2023-11-13T07:12:38.058Z,88.76
2023-11-13T07:15:21.624Z,88.35
2023-11-13T07:18:01.101Z,88.65
2023-11-13T07:20:41.218Z,88.10
2023-11-13T07:23:20.495Z,88.23
2023-11-13T07:25:59.809Z,87.96
2023-11-13T07:28:44.232Z,87.89
2023-11-13T07:31:23.598Z,87.68
2023-11-13T07:34:03.305Z,86.75
2023-11-13T07:36:42.667Z,86.20
2023-11-13T07:39:26.666Z,86.08
2023-11-13T07:42:06.221Z,85.68
2023-11-13T07:44:51.627Z,85.75
2023-11-13T07:47:30.973Z,85.79
2023-11-13T07:50:13.917Z,85.98
2023-11-13T07:52:53.486Z,85.53
2023-11-13T07:55:32.864Z,85.26
2023-11-13T07:58:12.460Z,85.74
2023-11-13T08:00:57.926Z,86.00
2023-11-13T08:03:37.610Z,86.34
2023-11-13T08:06:16.949Z,86.74
2023-11-13T08:08:56.911Z,87.68
2023-11-13T08:11:36.242Z,88.35
2023-11-13T08:14:17.954Z,86.99
2023-11-13T08:17:02.724Z,86.63
2023-11-13T08:19:44.098Z,86.30
2023-11-13T08:22:23.396Z,86.69
2023-11-13T08:25:02.744Z,86.90
2023-11-13T08:27:42.053Z,86.83
2023-11-13T08:30:24.835Z,86.94
2023-11-13T08:33:10.684Z,87.28
2023-11-13T08:35:50.423Z,87.06
2023-11-13T08:38:29.724Z,87.61
2023-11-13T08:41:09.021Z,87.83
2023-11-13T08:43:48.343Z,87.94
2023-11-13T08:46:28.134Z,87.83
2023-11-13T08:49:16.624Z,87.45
2023-11-13T08:51:55.952Z,87.41
2023-11-13T08:54:36.131Z,86.45
2023-11-13T08:57:16.172Z,86.75
2023-11-13T08:59:55.652Z,87.20
2023-11-13T09:02:35.131Z,87.69
2023-11-13T09:05:21.802Z,88.01
2023-11-13T09:08:01.109Z,87.79
2023-11-13T09:10:40.783Z,87.87
2023-11-13T09:13:20.064Z,88.00
2023-11-13T09:15:59.417Z,88.56
2023-11-13T09:18:39.119Z,88.43
2023-11-13T09:21:25.483Z,89.06
2023-11-13T09:24:04.755Z,89.13
2023-11-13T09:26:44.056Z,88.60
2023-11-13T09:29:23.316Z,88.31
2023-11-13T09:32:02.684Z,88.52
2023-11-13T09:34:44.404Z,88.86
2023-11-13T09:37:28.851Z,88.64
2023-11-13T09:40:10.642Z,88.40
2023-11-13T09:42:53.361Z,88.36
2023-11-13T09:45:32.718Z,88.81
2023-11-13T09:48:15.217Z,88.69
2023-11-13T09:50:56.161Z,88.65
2023-11-13T09:53:45.047Z,87.78
2023-11-13T09:56:25.937Z,88.06
2023-11-13T09:59:08.069Z,88.00
2023-11-13T10:01:47.477Z,87.82
2023-11-13T10:04:26.903Z,87.77
2023-11-13T10:07:06.718Z,87.36
2023-11-13T10:10:12.236Z,87.65
2023-11-13T10:12:52.010Z,88.02
2023-11-13T10:15:32.678Z,88.34
2023-11-13T10:18:15.164Z,88.37
2023-11-13T10:20:55.535Z,88.45
2023-11-13T10:23:43.156Z,88.24
2023-11-13T10:26:34.279Z,88.16
2023-11-13T10:29:29.001Z,88.75
2023-11-13T10:32:09.297Z,89.23
2023-11-13T10:34:51.638Z,89.60
2023-11-13T10:37:32.218Z,89.71
2023-11-13T10:40:13.661Z,89.87
2023-11-13T10:43:00.744Z,89.46
2023-11-13T10:45:40.258Z,89.66
2023-11-13T10:48:21.935Z,89.84
2023-11-13T10:51:07.006Z,90.05
2023-11-13T10:53:48.439Z,89.71
2023-11-13T10:56:28.171Z,89.71
2023-11-13T10:59:12.704Z,89.51
2023-11-13T11:01:54.590Z,90.07
2023-11-13T11:04:37.026Z,90.35
2023-11-13T11:07:19.701Z,90.10
2023-11-13T11:10:04.060Z,90.16
2023-11-13T11:12:50.331Z,90.26
2023-11-13T11:15:57.666Z,90.02
2023-11-13T11:18:49.962Z,89.78
2023-11-13T11:21:49.132Z,90.20
2023-11-13T11:24:40.515Z,89.62
2023-11-13T11:27:49.268Z,90.30
2023-11-13T11:30:43.962Z,90.13
2023-11-13T11:33:25.409Z,90.34
2023-11-13T11:36:06.450Z,90.30
2023-11-13T11:38:45.817Z,90.31
2023-11-13T11:41:48.195Z,90.81
2023-11-13T11:44:36.986Z,90.52
2023-11-13T11:47:28.421Z,90.54
2023-11-13T11:50:08.849Z,90.90
2023-11-13T11:52:54.136Z,90.72
2023-11-13T11:55:35.840Z,90.60
2023-11-13T11:58:16.062Z,90.88
2023-11-13T12:01:00.581Z,91.14
2023-11-13T12:03:40.271Z,90.79
2023-11-13T12:06:20.903Z,90.79
2023-11-13T12:09:00.307Z,90.74
2023-11-13T12:11:40.964Z,90.71
2023-11-13T12:14:20.339Z,90.84
2023-11-13T12:17:05.834Z,90.79
2023-11-13T12:19:45.609Z,91.32
2023-11-13T12:22:25.090Z,91.56
2023-11-13T12:25:04.768Z,91.30
2023-11-13T12:27:45.890Z,91.56
2023-11-13T12:30:26.479Z,91.83
2023-11-13T12:33:11.004Z,91.43
2023-11-13T12:35:50.328Z,91.56
2023-11-13T12:38:30.607Z,91.17
2023-11-13T12:41:09.951Z,91.15
2023-11-13T12:43:50.228Z,91.07
2023-11-13T12:46:31.047Z,91.20
2023-11-13T12:49:19.508Z,90.55
2023-11-13T12:51:58.947Z,90.40
2023-11-13T12:54:38.277Z,89.60
2023-11-13T12:57:21.254Z,89.28
2023-11-13T13:00:00.672Z,89.47
2023-11-13T13:02:41.046Z,89.06
2023-11-13T13:05:30.802Z,89.40
2023-11-13T13:08:13.468Z,89.11
2023-11-13T13:10:53.827Z,89.17
2023-11-13T13:13:42.642Z,89.25
2023-11-13T13:16:29.850Z,88.96
2023-11-13T13:19:11.687Z,88.68
2023-11-13T13:21:56.218Z,89.38
2023-11-13T13:24:35.676Z,89.67
2023-11-13T13:27:15.429Z,89.88
2023-11-13T13:29:54.842Z,90.09
2023-11-13T13:32:35.682Z,90.37
2023-11-13T13:35:16.007Z,90.80
2023-11-13T13:38:00.329Z,90.87
2023-11-13T13:40:43.712Z,91.07
2023-11-13T13:43:24.840Z,90.86
2023-11-13T13:46:05.442Z,90.87
2023-11-13T13:48:46.905Z,91.02
2023-11-13T13:51:27.297Z,91.24
2023-11-13T13:54:12.291Z,91.26
2023-11-13T13:56:51.932Z,91.21
2023-11-13T13:59:32.186Z,91.18
2023-11-13T14:02:12.328Z,90.81
2023-11-13T14:04:51.793Z,90.93
2023-11-13T14:07:31.128Z,91.15
2023-11-13T14:10:16.227Z,91.00
2023-11-13T14:12:55.873Z,90.66
2023-11-13T14:15:35.312Z,90.85
2023-11-13T14:18:14.689Z,90.75
2023-11-13T14:20:53.973Z,90.49
2023-11-13T14:23:34.222Z,90.48
2023-11-13T14:26:22.566Z,90.62
2023-11-13T14:29:02.297Z,90.58
2023-11-13T14:31:42.131Z,90.15
2023-11-13T14:34:21.692Z,90.61
2023-11-13T14:37:01.098Z,90.80
2023-11-13T14:39:40.821Z,91.05
2023-11-13T14:42:26.617Z,91.06
2023-11-13T14:45:06.005Z,91.00
2023-11-13T14:47:46.582Z,91.37
2023-11-13T14:50:28.279Z,91.72
2023-11-13T14:53:07.653Z,91.51
2023-11-13T14:55:47.043Z,91.37
2023-11-13T14:58:31.670Z,91.19
2023-11-13T15:01:11.479Z,91.27
2023-11-13T15:03:52.677Z,91.15
2023-11-13T15:06:32.026Z,91.21
2023-11-13T15:09:12.259Z,91.23
2023-11-13T15:11:54.529Z,91.29
2023-11-13T15:14:39.077Z,91.20
2023-11-13T15:17:18.910Z,91.54
2023-11-13T15:19:58.430Z,91.58
2023-11-13T15:22:55.905Z,92.03
2023-11-13T15:25:38.133Z,92.40
2023-11-13T15:28:17.467Z,92.57
2023-11-13T15:31:01.864Z,92.76
2023-11-13T15:33:41.259Z,92.81
2023-11-13T15:36:23.191Z,92.79
2023-11-13T15:39:05.976Z,93.12
2023-11-13T15:41:45.340Z,93.04
2023-11-13T15:44:24.660Z,94.26
2023-11-13T15:47:10.748Z,94.30
2023-11-13T15:49:50.072Z,95.09
2023-11-13T15:52:29.854Z,94.69
2023-11-13T15:55:09.161Z,95.44
2023-11-13T15:57:48.624Z,97.10
2023-11-13T16:00:29.667Z,97.90
2023-11-13T16:03:14.153Z,98.67
2023-11-13T16:05:53.483Z,98.69
2023-11-13T16:08:32.862Z,98.30
2023-11-13T16:11:12.797Z,97.77
2023-11-13T16:13:53.695Z,96.39
2023-11-13T16:16:33.028Z,95.41
2023-11-13T16:19:17.701Z,95.33
2023-11-13T16:21:57.015Z,94.77
2023-11-13T16:24:36.851Z,94.33
2023-11-13T16:27:16.193Z,94.26
2023-11-13T16:29:55.744Z,94.05
2023-11-13T16:32:35.221Z,93.80
2023-11-13T16:35:19.962Z,93.59
2023-11-13T16:37:59.243Z,93.64
2023-11-13T16:40:38.857Z,92.84
2023-11-13T16:43:18.269Z,93.06
2023-11-13T16:45:59.102Z,92.99
2023-11-13T16:48:38.659Z,92.52
2023-11-13T16:51:23.925Z,92.48
2023-11-13T16:54:03.325Z,92.51
2023-11-13T16:56:47.124Z,92.40
2023-11-13T16:59:26.396Z,92.42
2023-11-13T17:02:05.738Z,92.00
2023-11-13T17:04:45.124Z,92.25
2023-11-13T17:07:32.344Z,92.35
2023-11-13T17:10:12.413Z,91.99
2023-11-13T17:12:51.758Z,91.98
2023-11-13T17:15:31.594Z,90.88
2023-11-13T17:18:11.614Z,90.42
2023-11-13T17:20:56.287Z,90.30
2023-11-13T17:23:40.723Z,90.65
2023-11-13T17:26:20.056Z,91.22
2023-11-13T17:28:59.359Z,90.45
2023-11-13T17:31:38.757Z,90.77
2023-11-13T17:34:18.744Z,90.88
2023-11-13T17:36:58.403Z,90.72
2023-11-13T17:39:42.833Z,90.64
2023-11-13T17:42:23.523Z,90.00
2023-11-13T17:45:05.862Z,89.44
2023-11-13T17:47:46.008Z,89.62
2023-11-13T17:50:25.332Z,89.40
2023-11-13T17:53:04.677Z,88.87
2023-11-13T17:55:49.199Z,88.78
2023-11-13T17:58:28.525Z,88.59
2023-11-13T18:01:08.371Z,87.59
2023-11-13T18:03:49.550Z,87.94
2023-11-13T18:06:32.211Z,88.22
2023-11-13T18:09:13.153Z,88.26
2023-11-13T18:11:57.568Z,88.56
2023-11-13T18:14:37.218Z,88.54
2023-11-13T18:17:16.569Z,88.04
2023-11-13T18:19:55.933Z,87.76
2023-11-13T18:22:35.582Z,87.95
2023-11-13T18:25:15.853Z,87.69
2023-11-13T18:28:00.235Z,88.14
2023-11-13T18:30:39.678Z,87.85
2023-11-13T18:33:19.029Z,87.43
2023-11-13T18:35:59.230Z,87.34
2023-11-13T18:38:38.748Z,86.92
2023-11-13T18:41:19.022Z,86.97
2023-11-13T18:44:03.956Z,87.35
2023-11-13T18:46:44.288Z,86.91
2023-11-13T18:49:23.785Z,86.75
2023-11-13T18:52:03.107Z,85.93
2023-11-13T18:54:42.437Z,85.22
2023-11-13T18:57:23.586Z,83.17
2023-11-13T19:00:07.997Z,82.54
2023-11-13T19:02:49.031Z,83.85
2023-11-13T19:05:29.397Z,83.77
2023-11-13T19:08:08.762Z,84.18
2023-11-13T19:10:48.190Z,84.55
2023-11-13T19:13:27.582Z,84.21
2023-11-13T19:16:13.689Z,83.93
2023-11-13T19:18:53.775Z,83.40
2023-11-13T19:21:33.106Z,84.18
2023-11-13T19:24:13.462Z,84.14
2023-11-13T19:26:52.790Z,84.40
2023-11-13T19:29:32.274Z,83.94
2023-11-13T19:32:17.901Z,83.97
2023-11-13T19:34:57.262Z,83.95
2023-11-13T19:37:36.587Z,84.21
2023-11-13T19:40:18.790Z,83.31
2023-11-13T19:43:00.610Z,85.34
2023-11-13T19:45:39.978Z,83.40
2023-11-13T19:48:25.945Z,89.34
2023-11-13T19:51:08.019Z,96.31
2023-11-13T19:53:47.361Z,96.08
2023-11-13T19:56:26.740Z,96.39
2023-11-13T19:59:06.333Z,96.70
2023-11-13T20:01:45.726Z,96.71
2023-11-13T20:04:30.258Z,96.03
2023-11-13T20:07:10.871Z,96.36
2023-11-13T20:09:50.222Z,96.71
2023-11-13T20:12:29.638Z,96.66
2023-11-13T20:15:09.080Z,96.41
2023-11-13T20:17:49.465Z,96.45
2023-11-13T20:20:34.090Z,95.94
2023-11-13T20:23:13.813Z,96.03
2023-11-13T20:25:53.983Z,96.29
2023-11-13T20:28:33.387Z,94.94
2023-11-13T20:31:14.578Z,83.07
2023-11-13T20:33:55.218Z,81.06
2023-11-13T20:36:40.816Z,80.26
2023-11-13T20:39:20.648Z,81.41
2023-11-13T20:42:02.117Z,79.09
2023-11-13T20:44:41.843Z,79.12
2023-11-13T20:47:22.599Z,77.09
2023-11-13T20:50:02.250Z,74.40
2023-11-13T20:52:46.786Z,75.13
2023-11-13T20:55:26.215Z,73.70
2023-11-13T20:58:07.668Z,74.76
2023-11-13T21:00:48.738Z,74.81
2023-11-13T21:03:29.953Z,75.41
2023-11-13T21:06:10.410Z,75.69
2023-11-13T21:08:54.961Z,74.88
2023-11-13T21:11:37.944Z,74.63
2023-11-13T21:14:17.478Z,74.12
2023-11-13T21:16:56.822Z,73.76
2023-11-13T21:19:36.341Z,73.50
2023-11-13T21:22:15.696Z,74.04
2023-11-13T21:25:00.131Z,74.26
2023-11-13T21:27:40.402Z,74.64
2023-11-13T21:30:20.846Z,74.67
2023-11-13T21:33:00.233Z,74.20
2023-11-13T21:35:39.544Z,74.81
2023-11-13T21:38:19.936Z,75.53
2023-11-13T21:41:04.541Z,75.58
2023-11-13T21:43:43.850Z,75.56
2023-11-13T21:46:24.019Z,75.07
2023-11-13T21:49:04.322Z,75.29
2023-11-13T21:51:45.866Z,75.29
2023-11-13T21:54:25.360Z,75.58
2023-11-13T21:57:12.249Z,75.35
2023-11-13T21:59:52.058Z,75.65
2023-11-13T22:02:31.680Z,75.54
2023-11-13T22:05:11.725Z,75.77
2023-11-13T22:07:53.461Z,76.48
2023-11-13T22:10:34.133Z,76.19
2023-11-13T22:13:18.846Z,76.92
2023-11-13T22:15:59.877Z,77.65
2023-11-13T22:18:39.215Z,78.04
2023-11-13T22:21:18.570Z,78.59
2023-11-13T22:23:57.902Z,78.57
2023-11-13T22:26:37.185Z,78.79
2023-11-13T22:29:21.954Z,79.59
2023-11-13T22:32:01.426Z,80.47
2023-11-13T22:34:42.263Z,80.75
2023-11-13T22:37:21.932Z,80.71
2023-11-13T22:40:01.241Z,81.25
2023-11-13T22:42:40.684Z,82.87
2023-11-13T22:45:25.904Z,83.66
2023-11-13T22:48:06.365Z,84.81
2023-11-13T22:50:45.910Z,86.37
2023-11-13T22:53:25.278Z,86.80
2023-11-13T22:56:04.826Z,86.64
2023-11-13T22:58:44.688Z,86.93
2023-11-13T23:01:31.298Z,87.02
2023-11-13T23:04:11.090Z,84.07
2023-11-13T23:06:50.403Z,81.07
2023-11-13T23:09:30.590Z,80.63
2023-11-13T23:12:09.997Z,79.44
2023-11-13T23:14:49.402Z,78.74
2023-11-13T23:17:33.997Z,79.04
2023-11-13T23:20:15.902Z,78.63
2023-11-13T23:22:55.301Z,78.52
2023-11-13T23:25:34.641Z,78.63
2023-11-13T23:28:13.996Z,78.88
2023-11-13T23:30:54.321Z,79.20
2023-11-13T23:33:38.912Z,79.39
2023-11-13T23:36:18.483Z,79.53
2023-11-13T23:38:57.747Z,78.38
2023-11-13T23:41:38.035Z,78.12
2023-11-13T23:44:18.068Z,78.22
2023-11-13T23:46:57.631Z,77.34
2023-11-13T23:49:42.917Z,77.15
2023-11-13T23:52:22.289Z,76.79
2023-11-13T23:55:01.977Z,76.59
2023-11-13T23:57:41.255Z,76.97
